Benchland, Montana
Current Conditions -  °F | °C
As of 2:54 PM on Friday 31 Oct 2014 (Local Time) from KLWT Reporting Station
Clear Clear  
Wind Chill: 67°   Ceiling: Unl
Heat Index: 67°   Visibility: 10mi
Dew Point: 31°   Wind: 16mph
Humidity: 26%   Direction: 230°SW
Pressure: 29.77"   Gusts: NA
Location:  47.1096°N, 109.884°W
Report Text: KLWT 312054Z AUTO 23014KT 10SM CLR 19/M01 A2977 RMK AO2 SLP064 T01941006 56018
Loading
Personal Weather Stations






























Interactive Weather Map New forecast layout! Learn more

10-Day Weather Forecast

Advertisements
Track Severe Weather on mobile